<?xml version="1.0" encoding="UTF-8" standalone="no" ?>
<gpx xmlns="http://www.topografix.com/GPX/1/1" xmlns:xsi="http://www.w3.org/2001/XMLSchema-instance" xsi:schemaLocation="http://www.topografix.com/GPX/1/1 http://www.topografix.com/GPX/1/1/gpx.xsd" version="1.1" creator="VisuGPX - https://www.visugpx.com">
  <metadata>
    <name>12639010-CHAMBOST Ed reco</name>
  </metadata>
  <trk>
    <name><![CDATA[12639010-CHAMBOST Ed reco]]></name>
    <trkseg>
      <trkpt lat="46.01672" lon="4.51174">
        <ele>538</ele>
        <time>2021-03-05T16:58:53Z</time>
      </trkpt>
      <trkpt lat="46.01668" lon="4.51175">
        <ele>539</ele>
        <time>2021-03-05T16:58:58Z</time>
      </trkpt>
      <trkpt lat="46.01666" lon="4.51223">
        <ele>538</ele>
        <time>2021-03-05T16:59:43Z</time>
      </trkpt>
      <trkpt lat="46.01667" lon="4.51233">
        <ele>538</ele>
        <time>2021-03-05T16:59:52Z</time>
      </trkpt>
      <trkpt lat="46.01662" lon="4.51238">
        <ele>537</ele>
        <time>2021-03-05T17:00:00Z</time>
      </trkpt>
      <trkpt lat="46.01661" lon="4.51244">
        <ele>537</ele>
        <time>2021-03-05T17:00:06Z</time>
      </trkpt>
      <trkpt lat="46.01661" lon="4.51326">
        <ele>543</ele>
        <time>2021-03-05T17:01:22Z</time>
      </trkpt>
      <trkpt lat="46.0166" lon="4.51336">
        <ele>544</ele>
        <time>2021-03-05T17:01:32Z</time>
      </trkpt>
      <trkpt lat="46.01665" lon="4.51374">
        <ele>548</ele>
        <time>2021-03-05T17:02:07Z</time>
      </trkpt>
      <trkpt lat="46.01668" lon="4.51574">
        <ele>577</ele>
        <time>2021-03-05T17:05:13Z</time>
      </trkpt>
      <trkpt lat="46.01666" lon="4.51589">
        <ele>578</ele>
        <time>2021-03-05T17:05:27Z</time>
      </trkpt>
      <trkpt lat="46.01665" lon="4.5161">
        <ele>578</ele>
        <time>2021-03-05T17:05:46Z</time>
      </trkpt>
      <trkpt lat="46.01666" lon="4.51628">
        <ele>579</ele>
        <time>2021-03-05T17:06:03Z</time>
      </trkpt>
      <trkpt lat="46.01669" lon="4.51638">
        <ele>579</ele>
        <time>2021-03-05T17:06:13Z</time>
      </trkpt>
      <trkpt lat="46.01672" lon="4.51636">
        <ele>579</ele>
        <time>2021-03-05T17:06:18Z</time>
      </trkpt>
      <trkpt lat="46.01669" lon="4.51638">
        <ele>579</ele>
        <time>2021-03-05T17:06:22Z</time>
      </trkpt>
      <trkpt lat="46.01667" lon="4.51646">
        <ele>579</ele>
        <time>2021-03-05T17:06:30Z</time>
      </trkpt>
      <trkpt lat="46.01661" lon="4.51656">
        <ele>579</ele>
        <time>2021-03-05T17:06:42Z</time>
      </trkpt>
      <trkpt lat="46.01617" lon="4.51673">
        <ele>576</ele>
        <time>2021-03-05T17:07:43Z</time>
      </trkpt>
      <trkpt lat="46.01578" lon="4.51684">
        <ele>574</ele>
        <time>2021-03-05T17:08:36Z</time>
      </trkpt>
      <trkpt lat="46.01569" lon="4.51684">
        <ele>574</ele>
        <time>2021-03-05T17:08:48Z</time>
      </trkpt>
      <trkpt lat="46.01538" lon="4.51672">
        <ele>572</ele>
        <time>2021-03-05T17:09:31Z</time>
      </trkpt>
      <trkpt lat="46.01497" lon="4.51672">
        <ele>571</ele>
        <time>2021-03-05T17:10:26Z</time>
      </trkpt>
      <trkpt lat="46.0149" lon="4.51669">
        <ele>572</ele>
        <time>2021-03-05T17:10:35Z</time>
      </trkpt>
      <trkpt lat="46.01486" lon="4.51664">
        <ele>571</ele>
        <time>2021-03-05T17:10:42Z</time>
      </trkpt>
      <trkpt lat="46.0149" lon="4.51669">
        <ele>572</ele>
        <time>2021-03-05T17:10:49Z</time>
      </trkpt>
      <trkpt lat="46.01497" lon="4.51672">
        <ele>571</ele>
        <time>2021-03-05T17:10:59Z</time>
      </trkpt>
      <trkpt lat="46.0151" lon="4.51672">
        <ele>571</ele>
        <time>2021-03-05T17:11:17Z</time>
      </trkpt>
      <trkpt lat="46.01508" lon="4.51678">
        <ele>572</ele>
        <time>2021-03-05T17:11:23Z</time>
      </trkpt>
      <trkpt lat="46.01505" lon="4.51681">
        <ele>572</ele>
        <time>2021-03-05T17:11:28Z</time>
      </trkpt>
      <trkpt lat="46.01499" lon="4.51682">
        <ele>572</ele>
        <time>2021-03-05T17:11:36Z</time>
      </trkpt>
      <trkpt lat="46.01468" lon="4.51677">
        <ele>576</ele>
        <time>2021-03-05T17:12:17Z</time>
      </trkpt>
      <trkpt lat="46.01445" lon="4.5167">
        <ele>579</ele>
        <time>2021-03-05T17:12:49Z</time>
      </trkpt>
      <trkpt lat="46.01378" lon="4.51625">
        <ele>583</ele>
        <time>2021-03-05T17:14:27Z</time>
      </trkpt>
      <trkpt lat="46.01356" lon="4.51616">
        <ele>587</ele>
        <time>2021-03-05T17:14:58Z</time>
      </trkpt>
      <trkpt lat="46.01311" lon="4.51613">
        <ele>597</ele>
        <time>2021-03-05T17:15:58Z</time>
      </trkpt>
      <trkpt lat="46.01302" lon="4.5161">
        <ele>598</ele>
        <time>2021-03-05T17:16:10Z</time>
      </trkpt>
      <trkpt lat="46.01258" lon="4.51592">
        <ele>606</ele>
        <time>2021-03-05T17:17:11Z</time>
      </trkpt>
      <trkpt lat="46.01227" lon="4.51577">
        <ele>605</ele>
        <time>2021-03-05T17:17:55Z</time>
      </trkpt>
      <trkpt lat="46.01215" lon="4.51577">
        <ele>604</ele>
        <time>2021-03-05T17:18:11Z</time>
      </trkpt>
      <trkpt lat="46.0121" lon="4.51581">
        <ele>604</ele>
        <time>2021-03-05T17:18:19Z</time>
      </trkpt>
      <trkpt lat="46.01207" lon="4.51586">
        <ele>605</ele>
        <time>2021-03-05T17:18:25Z</time>
      </trkpt>
      <trkpt lat="46.01205" lon="4.51598">
        <ele>605</ele>
        <time>2021-03-05T17:18:36Z</time>
      </trkpt>
      <trkpt lat="46.01204" lon="4.51592">
        <ele>605</ele>
        <time>2021-03-05T17:18:42Z</time>
      </trkpt>
      <trkpt lat="46.01205" lon="4.51598">
        <ele>605</ele>
        <time>2021-03-05T17:18:48Z</time>
      </trkpt>
      <trkpt lat="46.01203" lon="4.51611">
        <ele>606</ele>
        <time>2021-03-05T17:19:00Z</time>
      </trkpt>
      <trkpt lat="46.01194" lon="4.51696">
        <ele>614</ele>
        <time>2021-03-05T17:20:20Z</time>
      </trkpt>
      <trkpt lat="46.01174" lon="4.51781">
        <ele>622</ele>
        <time>2021-03-05T17:21:43Z</time>
      </trkpt>
      <trkpt lat="46.01168" lon="4.51817">
        <ele>625</ele>
        <time>2021-03-05T17:22:17Z</time>
      </trkpt>
      <trkpt lat="46.0116" lon="4.51927">
        <ele>632</ele>
        <time>2021-03-05T17:24:00Z</time>
      </trkpt>
      <trkpt lat="46.01154" lon="4.51958">
        <ele>633</ele>
        <time>2021-03-05T17:24:29Z</time>
      </trkpt>
      <trkpt lat="46.01143" lon="4.51991">
        <ele>634</ele>
        <time>2021-03-05T17:25:03Z</time>
      </trkpt>
      <trkpt lat="46.01107" lon="4.52066">
        <ele>640</ele>
        <time>2021-03-05T17:26:28Z</time>
      </trkpt>
      <trkpt lat="46.01073" lon="4.5212">
        <ele>642</ele>
        <time>2021-03-05T17:27:35Z</time>
      </trkpt>
      <trkpt lat="46.01046" lon="4.52151">
        <ele>643</ele>
        <time>2021-03-05T17:28:22Z</time>
      </trkpt>
      <trkpt lat="46.01028" lon="4.52167">
        <ele>643</ele>
        <time>2021-03-05T17:28:50Z</time>
      </trkpt>
      <trkpt lat="46.01008" lon="4.52181">
        <ele>642</ele>
        <time>2021-03-05T17:29:19Z</time>
      </trkpt>
      <trkpt lat="46.00951" lon="4.52224">
        <ele>639</ele>
        <time>2021-03-05T17:30:45Z</time>
      </trkpt>
      <trkpt lat="46.00929" lon="4.52235">
        <ele>639</ele>
        <time>2021-03-05T17:31:16Z</time>
      </trkpt>
      <trkpt lat="46.00908" lon="4.52243">
        <ele>640</ele>
        <time>2021-03-05T17:31:45Z</time>
      </trkpt>
      <trkpt lat="46.00815" lon="4.52262">
        <ele>641</ele>
        <time>2021-03-05T17:33:51Z</time>
      </trkpt>
      <trkpt lat="46.00758" lon="4.52284">
        <ele>640</ele>
        <time>2021-03-05T17:35:09Z</time>
      </trkpt>
      <trkpt lat="46.00696" lon="4.52295">
        <ele>642</ele>
        <time>2021-03-05T17:36:33Z</time>
      </trkpt>
      <trkpt lat="46.0065" lon="4.52314">
        <ele>640</ele>
        <time>2021-03-05T17:37:37Z</time>
      </trkpt>
      <trkpt lat="46.00638" lon="4.52325">
        <ele>638</ele>
        <time>2021-03-05T17:37:56Z</time>
      </trkpt>
      <trkpt lat="46.00609" lon="4.52364">
        <ele>633</ele>
        <time>2021-03-05T17:38:49Z</time>
      </trkpt>
      <trkpt lat="46.00585" lon="4.52388">
        <ele>632</ele>
        <time>2021-03-05T17:39:28Z</time>
      </trkpt>
      <trkpt lat="46.00531" lon="4.52437">
        <ele>624</ele>
        <time>2021-03-05T17:40:53Z</time>
      </trkpt>
      <trkpt lat="46.00491" lon="4.52481">
        <ele>623</ele>
        <time>2021-03-05T17:42:00Z</time>
      </trkpt>
      <trkpt lat="46.00453" lon="4.52527">
        <ele>620</ele>
        <time>2021-03-05T17:43:06Z</time>
      </trkpt>
      <trkpt lat="46.00374" lon="4.52609">
        <ele>620</ele>
        <time>2021-03-05T17:45:16Z</time>
      </trkpt>
      <trkpt lat="46.00277" lon="4.52672">
        <ele>621</ele>
        <time>2021-03-05T17:47:38Z</time>
      </trkpt>
      <trkpt lat="46.00224" lon="4.52699">
        <ele>622</ele>
        <time>2021-03-05T17:48:53Z</time>
      </trkpt>
      <trkpt lat="46.00218" lon="4.52705">
        <ele>622</ele>
        <time>2021-03-05T17:49:03Z</time>
      </trkpt>
      <trkpt lat="46.00186" lon="4.52691">
        <ele>625</ele>
        <time>2021-03-05T17:49:48Z</time>
      </trkpt>
      <trkpt lat="46.00168" lon="4.52671">
        <ele>625</ele>
        <time>2021-03-05T17:50:18Z</time>
      </trkpt>
      <trkpt lat="46.0012" lon="4.52604">
        <ele>625</ele>
        <time>2021-03-05T17:51:47Z</time>
      </trkpt>
      <trkpt lat="46.00095" lon="4.52577">
        <ele>626</ele>
        <time>2021-03-05T17:52:29Z</time>
      </trkpt>
      <trkpt lat="46.00081" lon="4.52565">
        <ele>626</ele>
        <time>2021-03-05T17:52:51Z</time>
      </trkpt>
      <trkpt lat="46.00031" lon="4.52531">
        <ele>626</ele>
        <time>2021-03-05T17:54:04Z</time>
      </trkpt>
      <trkpt lat="46" lon="4.52501">
        <ele>626</ele>
        <time>2021-03-05T17:54:54Z</time>
      </trkpt>
      <trkpt lat="45.99953" lon="4.52447">
        <ele>623</ele>
        <time>2021-03-05T17:56:15Z</time>
      </trkpt>
      <trkpt lat="45.9992" lon="4.52413">
        <ele>624</ele>
        <time>2021-03-05T17:57:09Z</time>
      </trkpt>
      <trkpt lat="45.99878" lon="4.52361">
        <ele>619</ele>
        <time>2021-03-05T17:58:23Z</time>
      </trkpt>
      <trkpt lat="45.99865" lon="4.52349">
        <ele>619</ele>
        <time>2021-03-05T17:58:43Z</time>
      </trkpt>
      <trkpt lat="45.99851" lon="4.52342">
        <ele>618</ele>
        <time>2021-03-05T17:59:03Z</time>
      </trkpt>
      <trkpt lat="45.99807" lon="4.52329">
        <ele>614</ele>
        <time>2021-03-05T18:00:03Z</time>
      </trkpt>
      <trkpt lat="45.99794" lon="4.52329">
        <ele>611</ele>
        <time>2021-03-05T18:00:20Z</time>
      </trkpt>
      <trkpt lat="45.99761" lon="4.52342">
        <ele>603</ele>
        <time>2021-03-05T18:01:06Z</time>
      </trkpt>
      <trkpt lat="45.99743" lon="4.52344">
        <ele>600</ele>
        <time>2021-03-05T18:01:30Z</time>
      </trkpt>
      <trkpt lat="45.99727" lon="4.5234">
        <ele>597</ele>
        <time>2021-03-05T18:01:52Z</time>
      </trkpt>
      <trkpt lat="45.9971" lon="4.52325">
        <ele>595</ele>
        <time>2021-03-05T18:02:18Z</time>
      </trkpt>
      <trkpt lat="45.99706" lon="4.5232">
        <ele>594</ele>
        <time>2021-03-05T18:02:25Z</time>
      </trkpt>
      <trkpt lat="45.99702" lon="4.52296">
        <ele>593</ele>
        <time>2021-03-05T18:02:48Z</time>
      </trkpt>
      <trkpt lat="45.99696" lon="4.52297">
        <ele>592</ele>
        <time>2021-03-05T18:02:56Z</time>
      </trkpt>
      <trkpt lat="45.9969" lon="4.52323">
        <ele>591</ele>
        <time>2021-03-05T18:03:22Z</time>
      </trkpt>
      <trkpt lat="45.99692" lon="4.52346">
        <ele>590</ele>
        <time>2021-03-05T18:03:43Z</time>
      </trkpt>
      <trkpt lat="45.99702" lon="4.52364">
        <ele>589</ele>
        <time>2021-03-05T18:04:05Z</time>
      </trkpt>
      <trkpt lat="45.99695" lon="4.52365">
        <ele>587</ele>
        <time>2021-03-05T18:04:14Z</time>
      </trkpt>
      <trkpt lat="45.99702" lon="4.52364">
        <ele>589</ele>
        <time>2021-03-05T18:04:23Z</time>
      </trkpt>
      <trkpt lat="45.99729" lon="4.52373">
        <ele>592</ele>
        <time>2021-03-05T18:05:00Z</time>
      </trkpt>
      <trkpt lat="45.9976" lon="4.52394">
        <ele>593</ele>
        <time>2021-03-05T18:05:46Z</time>
      </trkpt>
      <trkpt lat="45.99794" lon="4.52439">
        <ele>595</ele>
        <time>2021-03-05T18:06:48Z</time>
      </trkpt>
      <trkpt lat="45.99802" lon="4.52475">
        <ele>595</ele>
        <time>2021-03-05T18:07:23Z</time>
      </trkpt>
      <trkpt lat="45.99798" lon="4.52504">
        <ele>593</ele>
        <time>2021-03-05T18:07:50Z</time>
      </trkpt>
      <trkpt lat="45.99745" lon="4.5259">
        <ele>593</ele>
        <time>2021-03-05T18:09:37Z</time>
      </trkpt>
      <trkpt lat="45.99719" lon="4.52652">
        <ele>592</ele>
        <time>2021-03-05T18:10:44Z</time>
      </trkpt>
      <trkpt lat="45.99705" lon="4.52702">
        <ele>592</ele>
        <time>2021-03-05T18:11:34Z</time>
      </trkpt>
      <trkpt lat="45.99699" lon="4.52712">
        <ele>591</ele>
        <time>2021-03-05T18:11:46Z</time>
      </trkpt>
      <trkpt lat="45.99694" lon="4.52779">
        <ele>597</ele>
        <time>2021-03-05T18:12:49Z</time>
      </trkpt>
      <trkpt lat="45.99695" lon="4.52827">
        <ele>605</ele>
        <time>2021-03-05T18:13:33Z</time>
      </trkpt>
      <trkpt lat="45.9969" lon="4.52847">
        <ele>607</ele>
        <time>2021-03-05T18:13:53Z</time>
      </trkpt>
      <trkpt lat="45.99626" lon="4.52883">
        <ele>605</ele>
        <time>2021-03-05T18:15:24Z</time>
      </trkpt>
      <trkpt lat="45.99572" lon="4.52927">
        <ele>610</ele>
        <time>2021-03-05T18:16:47Z</time>
      </trkpt>
      <trkpt lat="45.99564" lon="4.52949">
        <ele>610</ele>
        <time>2021-03-05T18:17:10Z</time>
      </trkpt>
      <trkpt lat="45.99572" lon="4.52967">
        <ele>611</ele>
        <time>2021-03-05T18:17:30Z</time>
      </trkpt>
      <trkpt lat="45.99618" lon="4.5299">
        <ele>616</ele>
        <time>2021-03-05T18:18:35Z</time>
      </trkpt>
      <trkpt lat="45.99684" lon="4.53059">
        <ele>614</ele>
        <time>2021-03-05T18:20:24Z</time>
      </trkpt>
      <trkpt lat="45.99702" lon="4.53068">
        <ele>614</ele>
        <time>2021-03-05T18:20:49Z</time>
      </trkpt>
      <trkpt lat="45.99828" lon="4.53019">
        <ele>627</ele>
        <time>2021-03-05T18:23:44Z</time>
      </trkpt>
      <trkpt lat="45.99858" lon="4.52994">
        <ele>635</ele>
        <time>2021-03-05T18:24:30Z</time>
      </trkpt>
      <trkpt lat="45.99898" lon="4.52988">
        <ele>638</ele>
        <time>2021-03-05T18:25:23Z</time>
      </trkpt>
      <trkpt lat="45.99933" lon="4.52994">
        <ele>638</ele>
        <time>2021-03-05T18:26:10Z</time>
      </trkpt>
      <trkpt lat="45.99962" lon="4.53033">
        <ele>631</ele>
        <time>2021-03-05T18:27:03Z</time>
      </trkpt>
      <trkpt lat="45.99967" lon="4.53043">
        <ele>629</ele>
        <time>2021-03-05T18:27:15Z</time>
      </trkpt>
      <trkpt lat="45.99972" lon="4.53057">
        <ele>628</ele>
        <time>2021-03-05T18:27:29Z</time>
      </trkpt>
      <trkpt lat="45.99983" lon="4.53105">
        <ele>625</ele>
        <time>2021-03-05T18:28:16Z</time>
      </trkpt>
      <trkpt lat="46.00002" lon="4.53155">
        <ele>628</ele>
        <time>2021-03-05T18:29:09Z</time>
      </trkpt>
      <trkpt lat="45.99996" lon="4.53173">
        <ele>626</ele>
        <time>2021-03-05T18:29:28Z</time>
      </trkpt>
      <trkpt lat="46" lon="4.53192">
        <ele>624</ele>
        <time>2021-03-05T18:29:46Z</time>
      </trkpt>
      <trkpt lat="46.00005" lon="4.53206">
        <ele>623</ele>
        <time>2021-03-05T18:30:01Z</time>
      </trkpt>
      <trkpt lat="46.00024" lon="4.53237">
        <ele>624</ele>
        <time>2021-03-05T18:30:39Z</time>
      </trkpt>
      <trkpt lat="46.00036" lon="4.53263">
        <ele>625</ele>
        <time>2021-03-05T18:31:08Z</time>
      </trkpt>
      <trkpt lat="46.00054" lon="4.53315">
        <ele>623</ele>
        <time>2021-03-05T18:32:02Z</time>
      </trkpt>
      <trkpt lat="46.00063" lon="4.53358">
        <ele>619</ele>
        <time>2021-03-05T18:32:43Z</time>
      </trkpt>
      <trkpt lat="46.00072" lon="4.53378">
        <ele>618</ele>
        <time>2021-03-05T18:33:05Z</time>
      </trkpt>
      <trkpt lat="46.00082" lon="4.53397">
        <ele>618</ele>
        <time>2021-03-05T18:33:28Z</time>
      </trkpt>
      <trkpt lat="46.0011" lon="4.53434">
        <ele>615</ele>
        <time>2021-03-05T18:34:18Z</time>
      </trkpt>
      <trkpt lat="46.00127" lon="4.53468">
        <ele>610</ele>
        <time>2021-03-05T18:34:57Z</time>
      </trkpt>
      <trkpt lat="46.00137" lon="4.53484">
        <ele>608</ele>
        <time>2021-03-05T18:35:17Z</time>
      </trkpt>
      <trkpt lat="46.00147" lon="4.53492">
        <ele>608</ele>
        <time>2021-03-05T18:35:32Z</time>
      </trkpt>
      <trkpt lat="46.00169" lon="4.53495">
        <ele>611</ele>
        <time>2021-03-05T18:36:02Z</time>
      </trkpt>
      <trkpt lat="46.00192" lon="4.53489">
        <ele>612</ele>
        <time>2021-03-05T18:36:33Z</time>
      </trkpt>
      <trkpt lat="46.00218" lon="4.53479">
        <ele>615</ele>
        <time>2021-03-05T18:37:09Z</time>
      </trkpt>
      <trkpt lat="46.0024" lon="4.53479">
        <ele>615</ele>
        <time>2021-03-05T18:37:38Z</time>
      </trkpt>
      <trkpt lat="46.00248" lon="4.53481">
        <ele>614</ele>
        <time>2021-03-05T18:37:49Z</time>
      </trkpt>
      <trkpt lat="46.00272" lon="4.53501">
        <ele>611</ele>
        <time>2021-03-05T18:38:26Z</time>
      </trkpt>
      <trkpt lat="46.00334" lon="4.5353">
        <ele>615</ele>
        <time>2021-03-05T18:39:53Z</time>
      </trkpt>
      <trkpt lat="46.00353" lon="4.53542">
        <ele>617</ele>
        <time>2021-03-05T18:40:21Z</time>
      </trkpt>
      <trkpt lat="46.00357" lon="4.53548">
        <ele>617</ele>
        <time>2021-03-05T18:40:29Z</time>
      </trkpt>
      <trkpt lat="46.00359" lon="4.53554">
        <ele>617</ele>
        <time>2021-03-05T18:40:35Z</time>
      </trkpt>
      <trkpt lat="46.00358" lon="4.53566">
        <ele>614</ele>
        <time>2021-03-05T18:40:46Z</time>
      </trkpt>
      <trkpt lat="46.00357" lon="4.53569">
        <ele>613</ele>
        <time>2021-03-05T18:40:49Z</time>
      </trkpt>
      <trkpt lat="46.00358" lon="4.5357">
        <ele>613</ele>
        <time>2021-03-05T18:40:51Z</time>
      </trkpt>
      <trkpt lat="46.00318" lon="4.53675">
        <ele>603</ele>
        <time>2021-03-05T18:42:42Z</time>
      </trkpt>
      <trkpt lat="46.00318" lon="4.53675">
        <ele>603</ele>
        <time>2021-03-05T18:42:42Z</time>
      </trkpt>
      <trkpt lat="46.0033" lon="4.53759">
        <ele>612</ele>
        <time>2021-03-05T18:44:01Z</time>
      </trkpt>
      <trkpt lat="46.0033" lon="4.53759">
        <ele>612</ele>
        <time>2021-03-05T18:44:01Z</time>
      </trkpt>
      <trkpt lat="46.00435" lon="4.53555">
        <ele>637</ele>
        <time>2021-03-05T18:47:56Z</time>
      </trkpt>
      <trkpt lat="46.00435" lon="4.53555">
        <ele>637</ele>
        <time>2021-03-05T18:47:56Z</time>
      </trkpt>
      <trkpt lat="46.00529" lon="4.53572">
        <ele>641</ele>
        <time>2021-03-05T18:50:03Z</time>
      </trkpt>
      <trkpt lat="46.00524" lon="4.53588">
        <ele>642</ele>
        <time>2021-03-05T18:50:19Z</time>
      </trkpt>
      <trkpt lat="46.0055" lon="4.53603">
        <ele>640</ele>
        <time>2021-03-05T18:50:57Z</time>
      </trkpt>
      <trkpt lat="46.00592" lon="4.53604">
        <ele>636</ele>
        <time>2021-03-05T18:51:53Z</time>
      </trkpt>
      <trkpt lat="46.00622" lon="4.53596">
        <ele>634</ele>
        <time>2021-03-05T18:52:33Z</time>
      </trkpt>
      <trkpt lat="46.00653" lon="4.53583">
        <ele>630</ele>
        <time>2021-03-05T18:53:16Z</time>
      </trkpt>
      <trkpt lat="46.00693" lon="4.5358">
        <ele>627</ele>
        <time>2021-03-05T18:54:10Z</time>
      </trkpt>
      <trkpt lat="46.00734" lon="4.53588">
        <ele>628</ele>
        <time>2021-03-05T18:55:05Z</time>
      </trkpt>
      <trkpt lat="46.00762" lon="4.53589">
        <ele>629</ele>
        <time>2021-03-05T18:55:42Z</time>
      </trkpt>
      <trkpt lat="46.00847" lon="4.53578">
        <ele>631</ele>
        <time>2021-03-05T18:57:36Z</time>
      </trkpt>
      <trkpt lat="46.00898" lon="4.53583">
        <ele>636</ele>
        <time>2021-03-05T18:58:45Z</time>
      </trkpt>
      <trkpt lat="46.00937" lon="4.53576">
        <ele>635</ele>
        <time>2021-03-05T18:59:37Z</time>
      </trkpt>
      <trkpt lat="46.01011" lon="4.53582">
        <ele>638</ele>
        <time>2021-03-05T19:01:16Z</time>
      </trkpt>
      <trkpt lat="46.01067" lon="4.5361">
        <ele>638</ele>
        <time>2021-03-05T19:02:35Z</time>
      </trkpt>
      <trkpt lat="46.01113" lon="4.53658">
        <ele>645</ele>
        <time>2021-03-05T19:03:51Z</time>
      </trkpt>
      <trkpt lat="46.0113" lon="4.5368">
        <ele>643</ele>
        <time>2021-03-05T19:04:21Z</time>
      </trkpt>
      <trkpt lat="46.01135" lon="4.53708">
        <ele>643</ele>
        <time>2021-03-05T19:04:48Z</time>
      </trkpt>
      <trkpt lat="46.01119" lon="4.53734">
        <ele>649</ele>
        <time>2021-03-05T19:05:20Z</time>
      </trkpt>
      <trkpt lat="46.01097" lon="4.53759">
        <ele>658</ele>
        <time>2021-03-05T19:05:58Z</time>
      </trkpt>
      <trkpt lat="46.01075" lon="4.53849">
        <ele>657</ele>
        <time>2021-03-05T19:07:26Z</time>
      </trkpt>
      <trkpt lat="46.01075" lon="4.53931">
        <ele>652</ele>
        <time>2021-03-05T19:08:42Z</time>
      </trkpt>
      <trkpt lat="46.01066" lon="4.54011">
        <ele>650</ele>
        <time>2021-03-05T19:09:57Z</time>
      </trkpt>
      <trkpt lat="46.01039" lon="4.54059">
        <ele>651</ele>
        <time>2021-03-05T19:10:54Z</time>
      </trkpt>
      <trkpt lat="46.00964" lon="4.54116">
        <ele>660</ele>
        <time>2021-03-05T19:12:48Z</time>
      </trkpt>
      <trkpt lat="46.0096" lon="4.54121">
        <ele>660</ele>
        <time>2021-03-05T19:12:55Z</time>
      </trkpt>
      <trkpt lat="46.00963" lon="4.54126">
        <ele>659</ele>
        <time>2021-03-05T19:13:01Z</time>
      </trkpt>
      <trkpt lat="46.01055" lon="4.54115">
        <ele>641</ele>
        <time>2021-03-05T19:15:04Z</time>
      </trkpt>
      <trkpt lat="46.01055" lon="4.54115">
        <ele>641</ele>
        <time>2021-03-05T19:15:04Z</time>
      </trkpt>
      <trkpt lat="46.01114" lon="4.54085">
        <ele>627</ele>
        <time>2021-03-05T19:16:28Z</time>
      </trkpt>
      <trkpt lat="46.01114" lon="4.54085">
        <ele>627</ele>
        <time>2021-03-05T19:16:28Z</time>
      </trkpt>
      <trkpt lat="46.01126" lon="4.54132">
        <ele>628</ele>
        <time>2021-03-05T19:17:14Z</time>
      </trkpt>
      <trkpt lat="46.01131" lon="4.54129">
        <ele>627</ele>
        <time>2021-03-05T19:17:21Z</time>
      </trkpt>
      <trkpt lat="46.0114" lon="4.54133">
        <ele>626</ele>
        <time>2021-03-05T19:17:34Z</time>
      </trkpt>
      <trkpt lat="46.01198" lon="4.54124">
        <ele>620</ele>
        <time>2021-03-05T19:18:52Z</time>
      </trkpt>
      <trkpt lat="46.01226" lon="4.54115">
        <ele>617</ele>
        <time>2021-03-05T19:19:30Z</time>
      </trkpt>
      <trkpt lat="46.01238" lon="4.54108">
        <ele>615</ele>
        <time>2021-03-05T19:19:47Z</time>
      </trkpt>
      <trkpt lat="46.01263" lon="4.54105">
        <ele>611</ele>
        <time>2021-03-05T19:20:21Z</time>
      </trkpt>
      <trkpt lat="46.01263" lon="4.54104">
        <ele>610</ele>
        <time>2021-03-05T19:20:22Z</time>
      </trkpt>
      <trkpt lat="46.01348" lon="4.54355">
        <ele>634</ele>
        <time>2021-03-05T19:24:40Z</time>
      </trkpt>
      <trkpt lat="46.01357" lon="4.54367">
        <ele>638</ele>
        <time>2021-03-05T19:24:57Z</time>
      </trkpt>
      <trkpt lat="46.01379" lon="4.54331">
        <ele>633</ele>
        <time>2021-03-05T19:25:41Z</time>
      </trkpt>
      <trkpt lat="46.01414" lon="4.54282">
        <ele>624</ele>
        <time>2021-03-05T19:26:46Z</time>
      </trkpt>
      <trkpt lat="46.01453" lon="4.5425">
        <ele>618</ele>
        <time>2021-03-05T19:27:46Z</time>
      </trkpt>
      <trkpt lat="46.0147" lon="4.54247">
        <ele>619</ele>
        <time>2021-03-05T19:28:09Z</time>
      </trkpt>
      <trkpt lat="46.01488" lon="4.5425">
        <ele>622</ele>
        <time>2021-03-05T19:28:33Z</time>
      </trkpt>
      <trkpt lat="46.0152" lon="4.54264">
        <ele>622</ele>
        <time>2021-03-05T19:29:18Z</time>
      </trkpt>
      <trkpt lat="46.01562" lon="4.54315">
        <ele>626</ele>
        <time>2021-03-05T19:30:31Z</time>
      </trkpt>
      <trkpt lat="46.01583" lon="4.54349">
        <ele>630</ele>
        <time>2021-03-05T19:31:13Z</time>
      </trkpt>
      <trkpt lat="46.01613" lon="4.54427">
        <ele>638</ele>
        <time>2021-03-05T19:32:36Z</time>
      </trkpt>
      <trkpt lat="46.01654" lon="4.54498">
        <ele>637</ele>
        <time>2021-03-05T19:34:02Z</time>
      </trkpt>
      <trkpt lat="46.01672" lon="4.54519">
        <ele>639</ele>
        <time>2021-03-05T19:34:33Z</time>
      </trkpt>
      <trkpt lat="46.01672" lon="4.54521">
        <ele>639</ele>
        <time>2021-03-05T19:34:34Z</time>
      </trkpt>
      <trkpt lat="46.01643" lon="4.54549">
        <ele>653</ele>
        <time>2021-03-05T19:35:21Z</time>
      </trkpt>
      <trkpt lat="46.01643" lon="4.54549">
        <ele>653</ele>
        <time>2021-03-05T19:35:21Z</time>
      </trkpt>
      <trkpt lat="46.01658" lon="4.54583">
        <ele>656</ele>
        <time>2021-03-05T19:35:58Z</time>
      </trkpt>
      <trkpt lat="46.01658" lon="4.54583">
        <ele>656</ele>
        <time>2021-03-05T19:35:58Z</time>
      </trkpt>
      <trkpt lat="46.01625" lon="4.54594">
        <ele>669</ele>
        <time>2021-03-05T19:36:44Z</time>
      </trkpt>
      <trkpt lat="46.01625" lon="4.54594">
        <ele>669</ele>
        <time>2021-03-05T19:36:44Z</time>
      </trkpt>
      <trkpt lat="46.01652" lon="4.54628">
        <ele>671</ele>
        <time>2021-03-05T19:37:31Z</time>
      </trkpt>
      <trkpt lat="46.01652" lon="4.54628">
        <ele>671</ele>
        <time>2021-03-05T19:37:31Z</time>
      </trkpt>
      <trkpt lat="46.01629" lon="4.54637">
        <ele>679</ele>
        <time>2021-03-05T19:38:03Z</time>
      </trkpt>
      <trkpt lat="46.01629" lon="4.54637">
        <ele>679</ele>
        <time>2021-03-05T19:38:03Z</time>
      </trkpt>
      <trkpt lat="46.01637" lon="4.54673">
        <ele>688</ele>
        <time>2021-03-05T19:38:38Z</time>
      </trkpt>
      <trkpt lat="46.01634" lon="4.54679">
        <ele>690</ele>
        <time>2021-03-05T19:38:45Z</time>
      </trkpt>
      <trkpt lat="46.016" lon="4.54642">
        <ele>688</ele>
        <time>2021-03-05T19:39:42Z</time>
      </trkpt>
      <trkpt lat="46.01575" lon="4.54599">
        <ele>685</ele>
        <time>2021-03-05T19:40:34Z</time>
      </trkpt>
      <trkpt lat="46.01514" lon="4.54483">
        <ele>679</ele>
        <time>2021-03-05T19:42:49Z</time>
      </trkpt>
      <trkpt lat="46.0149" lon="4.54448">
        <ele>676</ele>
        <time>2021-03-05T19:43:34Z</time>
      </trkpt>
      <trkpt lat="46.01477" lon="4.54439">
        <ele>673</ele>
        <time>2021-03-05T19:43:54Z</time>
      </trkpt>
      <trkpt lat="46.01463" lon="4.54439">
        <ele>672</ele>
        <time>2021-03-05T19:44:12Z</time>
      </trkpt>
      <trkpt lat="46.01448" lon="4.54447">
        <ele>672</ele>
        <time>2021-03-05T19:44:34Z</time>
      </trkpt>
      <trkpt lat="46.01427" lon="4.54468">
        <ele>676</ele>
        <time>2021-03-05T19:45:08Z</time>
      </trkpt>
      <trkpt lat="46.01375" lon="4.54539">
        <ele>684</ele>
        <time>2021-03-05T19:46:43Z</time>
      </trkpt>
      <trkpt lat="46.01288" lon="4.54616">
        <ele>691</ele>
        <time>2021-03-05T19:49:00Z</time>
      </trkpt>
      <trkpt lat="46.01282" lon="4.54626">
        <ele>693</ele>
        <time>2021-03-05T19:49:12Z</time>
      </trkpt>
      <trkpt lat="46.01278" lon="4.54641">
        <ele>696</ele>
        <time>2021-03-05T19:49:27Z</time>
      </trkpt>
      <trkpt lat="46.01263" lon="4.54653">
        <ele>697</ele>
        <time>2021-03-05T19:49:50Z</time>
      </trkpt>
      <trkpt lat="46.01254" lon="4.54654">
        <ele>697</ele>
        <time>2021-03-05T19:50:02Z</time>
      </trkpt>
      <trkpt lat="46.01252" lon="4.54652">
        <ele>696</ele>
        <time>2021-03-05T19:50:05Z</time>
      </trkpt>
      <trkpt lat="46.0125" lon="4.54655">
        <ele>697</ele>
        <time>2021-03-05T19:50:09Z</time>
      </trkpt>
      <trkpt lat="46.01249" lon="4.54654">
        <ele>697</ele>
        <time>2021-03-05T19:50:11Z</time>
      </trkpt>
      <trkpt lat="46.01222" lon="4.54583">
        <ele>698</ele>
        <time>2021-03-05T19:51:26Z</time>
      </trkpt>
      <trkpt lat="46.01222" lon="4.54583">
        <ele>698</ele>
        <time>2021-03-05T19:51:26Z</time>
      </trkpt>
      <trkpt lat="46.01213" lon="4.54626">
        <ele>707</ele>
        <time>2021-03-05T19:52:07Z</time>
      </trkpt>
      <trkpt lat="46.01213" lon="4.54626">
        <ele>707</ele>
        <time>2021-03-05T19:52:07Z</time>
      </trkpt>
      <trkpt lat="46.01209" lon="4.54649">
        <ele>711</ele>
        <time>2021-03-05T19:52:29Z</time>
      </trkpt>
      <trkpt lat="46.01209" lon="4.54649">
        <ele>711</ele>
        <time>2021-03-05T19:52:29Z</time>
      </trkpt>
      <trkpt lat="46.01194" lon="4.54649">
        <ele>717</ele>
        <time>2021-03-05T19:52:49Z</time>
      </trkpt>
      <trkpt lat="46.01194" lon="4.54649">
        <ele>717</ele>
        <time>2021-03-05T19:52:49Z</time>
      </trkpt>
      <trkpt lat="46.0119" lon="4.54609">
        <ele>716</ele>
        <time>2021-03-05T19:53:27Z</time>
      </trkpt>
      <trkpt lat="46.01181" lon="4.54608">
        <ele>720</ele>
        <time>2021-03-05T19:53:39Z</time>
      </trkpt>
      <trkpt lat="46.01181" lon="4.54581">
        <ele>719</ele>
        <time>2021-03-05T19:54:04Z</time>
      </trkpt>
      <trkpt lat="46.01179" lon="4.5455">
        <ele>716</ele>
        <time>2021-03-05T19:54:33Z</time>
      </trkpt>
      <trkpt lat="46.01172" lon="4.54505">
        <ele>712</ele>
        <time>2021-03-05T19:55:15Z</time>
      </trkpt>
      <trkpt lat="46.01152" lon="4.54463">
        <ele>713</ele>
        <time>2021-03-05T19:56:03Z</time>
      </trkpt>
      <trkpt lat="46.01134" lon="4.54451">
        <ele>715</ele>
        <time>2021-03-05T19:56:29Z</time>
      </trkpt>
      <trkpt lat="46.01102" lon="4.54446">
        <ele>721</ele>
        <time>2021-03-05T19:57:12Z</time>
      </trkpt>
      <trkpt lat="46.01066" lon="4.54444">
        <ele>726</ele>
        <time>2021-03-05T19:58:00Z</time>
      </trkpt>
      <trkpt lat="46.01002" lon="4.54417">
        <ele>725</ele>
        <time>2021-03-05T19:59:29Z</time>
      </trkpt>
      <trkpt lat="46.00953" lon="4.54404">
        <ele>718</ele>
        <time>2021-03-05T20:00:36Z</time>
      </trkpt>
      <trkpt lat="46.00921" lon="4.54409">
        <ele>718</ele>
        <time>2021-03-05T20:01:19Z</time>
      </trkpt>
      <trkpt lat="46.009" lon="4.54437">
        <ele>725</ele>
        <time>2021-03-05T20:01:57Z</time>
      </trkpt>
      <trkpt lat="46.00888" lon="4.5447">
        <ele>735</ele>
        <time>2021-03-05T20:02:31Z</time>
      </trkpt>
      <trkpt lat="46.00865" lon="4.54475">
        <ele>737</ele>
        <time>2021-03-05T20:03:02Z</time>
      </trkpt>
      <trkpt lat="46.00825" lon="4.54432">
        <ele>727</ele>
        <time>2021-03-05T20:04:09Z</time>
      </trkpt>
      <trkpt lat="46.00808" lon="4.54406">
        <ele>726</ele>
        <time>2021-03-05T20:04:42Z</time>
      </trkpt>
      <trkpt lat="46.00808" lon="4.54407">
        <ele>726</ele>
        <time>2021-03-05T20:04:43Z</time>
      </trkpt>
      <trkpt lat="46.00805" lon="4.5437">
        <ele>718</ele>
        <time>2021-03-05T20:05:17Z</time>
      </trkpt>
      <trkpt lat="46.00805" lon="4.5437">
        <ele>718</ele>
        <time>2021-03-05T20:05:18Z</time>
      </trkpt>
      <trkpt lat="46.0085" lon="4.54386">
        <ele>711</ele>
        <time>2021-03-05T20:06:19Z</time>
      </trkpt>
      <trkpt lat="46.0085" lon="4.54386">
        <ele>711</ele>
        <time>2021-03-05T20:06:19Z</time>
      </trkpt>
      <trkpt lat="46.00836" lon="4.54332">
        <ele>696</ele>
        <time>2021-03-05T20:07:13Z</time>
      </trkpt>
      <trkpt lat="46.00836" lon="4.54332">
        <ele>696</ele>
        <time>2021-03-05T20:07:13Z</time>
      </trkpt>
      <trkpt lat="46.00868" lon="4.54298">
        <ele>690</ele>
        <time>2021-03-05T20:08:06Z</time>
      </trkpt>
      <trkpt lat="46.00868" lon="4.54298">
        <ele>690</ele>
        <time>2021-03-05T20:08:06Z</time>
      </trkpt>
      <trkpt lat="46.00859" lon="4.54227">
        <ele>681</ele>
        <time>2021-03-05T20:09:13Z</time>
      </trkpt>
      <trkpt lat="46.00859" lon="4.54227">
        <ele>681</ele>
        <time>2021-03-05T20:09:13Z</time>
      </trkpt>
      <trkpt lat="46.00908" lon="4.54162">
        <ele>664</ele>
        <time>2021-03-05T20:10:42Z</time>
      </trkpt>
      <trkpt lat="46.00908" lon="4.54162">
        <ele>664</ele>
        <time>2021-03-05T20:10:42Z</time>
      </trkpt>
      <trkpt lat="46.00968" lon="4.54126">
        <ele>658</ele>
        <time>2021-03-05T20:12:09Z</time>
      </trkpt>
      <trkpt lat="46.00968" lon="4.54126">
        <ele>658</ele>
        <time>2021-03-05T20:12:09Z</time>
      </trkpt>
      <trkpt lat="46.01075" lon="4.54122">
        <ele>637</ele>
        <time>2021-03-05T20:14:31Z</time>
      </trkpt>
      <trkpt lat="46.01075" lon="4.54122">
        <ele>637</ele>
        <time>2021-03-05T20:14:31Z</time>
      </trkpt>
      <trkpt lat="46.01136" lon="4.54134">
        <ele>627</ele>
        <time>2021-03-05T20:15:54Z</time>
      </trkpt>
      <trkpt lat="46.01136" lon="4.54131">
        <ele>626</ele>
        <time>2021-03-05T20:15:56Z</time>
      </trkpt>
      <trkpt lat="46.0114" lon="4.54133">
        <ele>626</ele>
        <time>2021-03-05T20:16:02Z</time>
      </trkpt>
      <trkpt lat="46.01198" lon="4.54124">
        <ele>620</ele>
        <time>2021-03-05T20:17:20Z</time>
      </trkpt>
      <trkpt lat="46.01226" lon="4.54115">
        <ele>617</ele>
        <time>2021-03-05T20:17:58Z</time>
      </trkpt>
      <trkpt lat="46.01238" lon="4.54108">
        <ele>615</ele>
        <time>2021-03-05T20:18:15Z</time>
      </trkpt>
      <trkpt lat="46.01265" lon="4.54104">
        <ele>610</ele>
        <time>2021-03-05T20:18:52Z</time>
      </trkpt>
      <trkpt lat="46.01276" lon="4.54114">
        <ele>609</ele>
        <time>2021-03-05T20:19:09Z</time>
      </trkpt>
      <trkpt lat="46.01281" lon="4.54132">
        <ele>611</ele>
        <time>2021-03-05T20:19:27Z</time>
      </trkpt>
      <trkpt lat="46.01284" lon="4.54172">
        <ele>617</ele>
        <time>2021-03-05T20:20:04Z</time>
      </trkpt>
      <trkpt lat="46.01281" lon="4.54183">
        <ele>620</ele>
        <time>2021-03-05T20:20:15Z</time>
      </trkpt>
      <trkpt lat="46.01293" lon="4.54207">
        <ele>619</ele>
        <time>2021-03-05T20:20:43Z</time>
      </trkpt>
      <trkpt lat="46.01299" lon="4.54225">
        <ele>619</ele>
        <time>2021-03-05T20:21:01Z</time>
      </trkpt>
      <trkpt lat="46.01313" lon="4.54244">
        <ele>616</ele>
        <time>2021-03-05T20:21:27Z</time>
      </trkpt>
      <trkpt lat="46.01321" lon="4.5426">
        <ele>616</ele>
        <time>2021-03-05T20:21:45Z</time>
      </trkpt>
      <trkpt lat="46.01324" lon="4.5427">
        <ele>617</ele>
        <time>2021-03-05T20:21:55Z</time>
      </trkpt>
      <trkpt lat="46.0132" lon="4.54273">
        <ele>619</ele>
        <time>2021-03-05T20:22:01Z</time>
      </trkpt>
      <trkpt lat="46.01325" lon="4.54196">
        <ele>604</ele>
        <time>2021-03-05T20:23:13Z</time>
      </trkpt>
      <trkpt lat="46.01325" lon="4.54196">
        <ele>604</ele>
        <time>2021-03-05T20:23:13Z</time>
      </trkpt>
      <trkpt lat="46.01344" lon="4.54212">
        <ele>603</ele>
        <time>2021-03-05T20:23:42Z</time>
      </trkpt>
      <trkpt lat="46.01344" lon="4.54212">
        <ele>603</ele>
        <time>2021-03-05T20:23:42Z</time>
      </trkpt>
      <trkpt lat="46.01361" lon="4.54221">
        <ele>605</ele>
        <time>2021-03-05T20:24:06Z</time>
      </trkpt>
      <trkpt lat="46.01361" lon="4.54221">
        <ele>605</ele>
        <time>2021-03-05T20:24:06Z</time>
      </trkpt>
      <trkpt lat="46.01459" lon="4.54061">
        <ele>567</ele>
        <time>2021-03-05T20:27:24Z</time>
      </trkpt>
      <trkpt lat="46.01459" lon="4.54061">
        <ele>567</ele>
        <time>2021-03-05T20:27:24Z</time>
      </trkpt>
      <trkpt lat="46.01543" lon="4.54144">
        <ele>578</ele>
        <time>2021-03-05T20:29:40Z</time>
      </trkpt>
      <trkpt lat="46.01543" lon="4.54144">
        <ele>578</ele>
        <time>2021-03-05T20:29:40Z</time>
      </trkpt>
      <trkpt lat="46.01661" lon="4.54239">
        <ele>583</ele>
        <time>2021-03-05T20:32:41Z</time>
      </trkpt>
      <trkpt lat="46.01661" lon="4.54239">
        <ele>583</ele>
        <time>2021-03-05T20:32:41Z</time>
      </trkpt>
      <trkpt lat="46.0161" lon="4.54105">
        <ele>567</ele>
        <time>2021-03-05T20:35:02Z</time>
      </trkpt>
      <trkpt lat="46.0161" lon="4.54105">
        <ele>567</ele>
        <time>2021-03-05T20:35:02Z</time>
      </trkpt>
      <trkpt lat="46.01536" lon="4.54011">
        <ele>554</ele>
        <time>2021-03-05T20:37:14Z</time>
      </trkpt>
      <trkpt lat="46.01536" lon="4.54011">
        <ele>554</ele>
        <time>2021-03-05T20:37:14Z</time>
      </trkpt>
      <trkpt lat="46.01525" lon="4.53894">
        <ele>537</ele>
        <time>2021-03-05T20:39:03Z</time>
      </trkpt>
      <trkpt lat="46.01533" lon="4.53873">
        <ele>535</ele>
        <time>2021-03-05T20:39:25Z</time>
      </trkpt>
      <trkpt lat="46.01528" lon="4.53864">
        <ele>533</ele>
        <time>2021-03-05T20:39:36Z</time>
      </trkpt>
      <trkpt lat="46.01534" lon="4.53844">
        <ele>531</ele>
        <time>2021-03-05T20:39:56Z</time>
      </trkpt>
      <trkpt lat="46.01552" lon="4.53824">
        <ele>529</ele>
        <time>2021-03-05T20:40:27Z</time>
      </trkpt>
      <trkpt lat="46.01587" lon="4.53764">
        <ele>522</ele>
        <time>2021-03-05T20:41:39Z</time>
      </trkpt>
      <trkpt lat="46.01597" lon="4.53742">
        <ele>523</ele>
        <time>2021-03-05T20:42:04Z</time>
      </trkpt>
      <trkpt lat="46.01597" lon="4.53716">
        <ele>520</ele>
        <time>2021-03-05T20:42:28Z</time>
      </trkpt>
      <trkpt lat="46.01604" lon="4.53668">
        <ele>516</ele>
        <time>2021-03-05T20:43:13Z</time>
      </trkpt>
      <trkpt lat="46.0161" lon="4.53653">
        <ele>516</ele>
        <time>2021-03-05T20:43:29Z</time>
      </trkpt>
      <trkpt lat="46.01614" lon="4.53637">
        <ele>515</ele>
        <time>2021-03-05T20:43:45Z</time>
      </trkpt>
      <trkpt lat="46.01625" lon="4.53606">
        <ele>514</ele>
        <time>2021-03-05T20:44:17Z</time>
      </trkpt>
      <trkpt lat="46.01656" lon="4.53546">
        <ele>505</ele>
        <time>2021-03-05T20:45:27Z</time>
      </trkpt>
      <trkpt lat="46.01667" lon="4.53515">
        <ele>500</ele>
        <time>2021-03-05T20:45:59Z</time>
      </trkpt>
      <trkpt lat="46.01709" lon="4.53455">
        <ele>497</ele>
        <time>2021-03-05T20:47:18Z</time>
      </trkpt>
      <trkpt lat="46.01762" lon="4.53399">
        <ele>490</ele>
        <time>2021-03-05T20:48:45Z</time>
      </trkpt>
      <trkpt lat="46.01801" lon="4.53347">
        <ele>486</ele>
        <time>2021-03-05T20:49:56Z</time>
      </trkpt>
      <trkpt lat="46.01802" lon="4.53346">
        <ele>486</ele>
        <time>2021-03-05T20:49:58Z</time>
      </trkpt>
      <trkpt lat="46.01821" lon="4.53318">
        <ele>482</ele>
        <time>2021-03-05T20:50:34Z</time>
      </trkpt>
      <trkpt lat="46.01888" lon="4.53275">
        <ele>478</ele>
        <time>2021-03-05T20:52:12Z</time>
      </trkpt>
      <trkpt lat="46.01919" lon="4.53253">
        <ele>473</ele>
        <time>2021-03-05T20:52:58Z</time>
      </trkpt>
      <trkpt lat="46.01945" lon="4.53229">
        <ele>472</ele>
        <time>2021-03-05T20:53:40Z</time>
      </trkpt>
      <trkpt lat="46.01962" lon="4.53209">
        <ele>471</ele>
        <time>2021-03-05T20:54:09Z</time>
      </trkpt>
      <trkpt lat="46.01963" lon="4.53203">
        <ele>471</ele>
        <time>2021-03-05T20:54:15Z</time>
      </trkpt>
      <trkpt lat="46.01964" lon="4.53189">
        <ele>470</ele>
        <time>2021-03-05T20:54:28Z</time>
      </trkpt>
      <trkpt lat="46.01959" lon="4.53161">
        <ele>467</ele>
        <time>2021-03-05T20:54:54Z</time>
      </trkpt>
      <trkpt lat="46.01959" lon="4.53133">
        <ele>466</ele>
        <time>2021-03-05T20:55:20Z</time>
      </trkpt>
      <trkpt lat="46.01965" lon="4.53104">
        <ele>465</ele>
        <time>2021-03-05T20:55:48Z</time>
      </trkpt>
      <trkpt lat="46.01998" lon="4.53023">
        <ele>453</ele>
        <time>2021-03-05T20:57:15Z</time>
      </trkpt>
      <trkpt lat="46.02015" lon="4.52978">
        <ele>450</ele>
        <time>2021-03-05T20:58:03Z</time>
      </trkpt>
      <trkpt lat="46.02039" lon="4.52926">
        <ele>448</ele>
        <time>2021-03-05T20:59:01Z</time>
      </trkpt>
      <trkpt lat="46.02055" lon="4.52899">
        <ele>447</ele>
        <time>2021-03-05T20:59:34Z</time>
      </trkpt>
      <trkpt lat="46.02059" lon="4.52872">
        <ele>445</ele>
        <time>2021-03-05T20:59:59Z</time>
      </trkpt>
      <trkpt lat="46.02057" lon="4.52867">
        <ele>444</ele>
        <time>2021-03-05T21:00:05Z</time>
      </trkpt>
      <trkpt lat="46.02044" lon="4.5282">
        <ele>441</ele>
        <time>2021-03-05T21:00:51Z</time>
      </trkpt>
      <trkpt lat="46.02041" lon="4.52788">
        <ele>440</ele>
        <time>2021-03-05T21:01:21Z</time>
      </trkpt>
      <trkpt lat="46.02047" lon="4.5275">
        <ele>438</ele>
        <time>2021-03-05T21:01:57Z</time>
      </trkpt>
      <trkpt lat="46.02066" lon="4.527">
        <ele>431</ele>
        <time>2021-03-05T21:02:50Z</time>
      </trkpt>
      <trkpt lat="46.02072" lon="4.5267">
        <ele>428</ele>
        <time>2021-03-05T21:03:19Z</time>
      </trkpt>
      <trkpt lat="46.02072" lon="4.52623">
        <ele>423</ele>
        <time>2021-03-05T21:04:03Z</time>
      </trkpt>
      <trkpt lat="46.02068" lon="4.52598">
        <ele>421</ele>
        <time>2021-03-05T21:04:26Z</time>
      </trkpt>
      <trkpt lat="46.02066" lon="4.52591">
        <ele>420</ele>
        <time>2021-03-05T21:04:34Z</time>
      </trkpt>
      <trkpt lat="46.02062" lon="4.52588">
        <ele>420</ele>
        <time>2021-03-05T21:04:40Z</time>
      </trkpt>
      <trkpt lat="46.02058" lon="4.52583">
        <ele>420</ele>
        <time>2021-03-05T21:04:47Z</time>
      </trkpt>
      <trkpt lat="46.02055" lon="4.52575">
        <ele>420</ele>
        <time>2021-03-05T21:04:55Z</time>
      </trkpt>
      <trkpt lat="46.02051" lon="4.52562">
        <ele>419</ele>
        <time>2021-03-05T21:05:08Z</time>
      </trkpt>
      <trkpt lat="46.02048" lon="4.52548">
        <ele>419</ele>
        <time>2021-03-05T21:05:22Z</time>
      </trkpt>
      <trkpt lat="46.02049" lon="4.52532">
        <ele>418</ele>
        <time>2021-03-05T21:05:37Z</time>
      </trkpt>
      <trkpt lat="46.02049" lon="4.52532">
        <ele>418</ele>
        <time>2021-03-05T21:05:37Z</time>
      </trkpt>
      <trkpt lat="46.02052" lon="4.52519">
        <ele>417</ele>
        <time>2021-03-05T21:05:49Z</time>
      </trkpt>
      <trkpt lat="46.02054" lon="4.52512">
        <ele>416</ele>
        <time>2021-03-05T21:05:56Z</time>
      </trkpt>
      <trkpt lat="46.02054" lon="4.52501">
        <ele>416</ele>
        <time>2021-03-05T21:06:07Z</time>
      </trkpt>
      <trkpt lat="46.0206" lon="4.52479">
        <ele>417</ele>
        <time>2021-03-05T21:06:28Z</time>
      </trkpt>
      <trkpt lat="46.02067" lon="4.52469">
        <ele>417</ele>
        <time>2021-03-05T21:06:42Z</time>
      </trkpt>
      <trkpt lat="46.02095" lon="4.52437">
        <ele>416</ele>
        <time>2021-03-05T21:07:29Z</time>
      </trkpt>
      <trkpt lat="46.02136" lon="4.52399">
        <ele>413</ele>
        <time>2021-03-05T21:08:34Z</time>
      </trkpt>
      <trkpt lat="46.02176" lon="4.52373">
        <ele>411</ele>
        <time>2021-03-05T21:09:33Z</time>
      </trkpt>
      <trkpt lat="46.02191" lon="4.52362">
        <ele>411</ele>
        <time>2021-03-05T21:09:55Z</time>
      </trkpt>
      <trkpt lat="46.02196" lon="4.52355">
        <ele>411</ele>
        <time>2021-03-05T21:10:05Z</time>
      </trkpt>
      <trkpt lat="46.02191" lon="4.52362">
        <ele>411</ele>
        <time>2021-03-05T21:10:14Z</time>
      </trkpt>
      <trkpt lat="46.02194" lon="4.52353">
        <ele>411</ele>
        <time>2021-03-05T21:10:23Z</time>
      </trkpt>
      <trkpt lat="46.02195" lon="4.52342">
        <ele>412</ele>
        <time>2021-03-05T21:10:34Z</time>
      </trkpt>
      <trkpt lat="46.02193" lon="4.52331">
        <ele>413</ele>
        <time>2021-03-05T21:10:44Z</time>
      </trkpt>
      <trkpt lat="46.02185" lon="4.52312">
        <ele>415</ele>
        <time>2021-03-05T21:11:05Z</time>
      </trkpt>
      <trkpt lat="46.02177" lon="4.52298">
        <ele>417</ele>
        <time>2021-03-05T21:11:21Z</time>
      </trkpt>
      <trkpt lat="46.02167" lon="4.52285">
        <ele>419</ele>
        <time>2021-03-05T21:11:39Z</time>
      </trkpt>
      <trkpt lat="46.02145" lon="4.52267">
        <ele>423</ele>
        <time>2021-03-05T21:12:13Z</time>
      </trkpt>
      <trkpt lat="46.02135" lon="4.52266">
        <ele>424</ele>
        <time>2021-03-05T21:12:27Z</time>
      </trkpt>
      <trkpt lat="46.02074" lon="4.52281">
        <ele>432</ele>
        <time>2021-03-05T21:13:49Z</time>
      </trkpt>
      <trkpt lat="46.02063" lon="4.52281">
        <ele>434</ele>
        <time>2021-03-05T21:14:04Z</time>
      </trkpt>
      <trkpt lat="46.02047" lon="4.52276">
        <ele>437</ele>
        <time>2021-03-05T21:14:26Z</time>
      </trkpt>
      <trkpt lat="46.02043" lon="4.52272">
        <ele>438</ele>
        <time>2021-03-05T21:14:32Z</time>
      </trkpt>
      <trkpt lat="46.02031" lon="4.52231">
        <ele>445</ele>
        <time>2021-03-05T21:15:13Z</time>
      </trkpt>
      <trkpt lat="46.02012" lon="4.52183">
        <ele>455</ele>
        <time>2021-03-05T21:16:05Z</time>
      </trkpt>
      <trkpt lat="46.02001" lon="4.5214">
        <ele>461</ele>
        <time>2021-03-05T21:16:47Z</time>
      </trkpt>
      <trkpt lat="46.01987" lon="4.52101">
        <ele>465</ele>
        <time>2021-03-05T21:17:28Z</time>
      </trkpt>
      <trkpt lat="46.01978" lon="4.5207">
        <ele>469</ele>
        <time>2021-03-05T21:17:59Z</time>
      </trkpt>
      <trkpt lat="46.01977" lon="4.5206">
        <ele>470</ele>
        <time>2021-03-05T21:18:08Z</time>
      </trkpt>
      <trkpt lat="46.01979" lon="4.52042">
        <ele>471</ele>
        <time>2021-03-05T21:18:25Z</time>
      </trkpt>
      <trkpt lat="46.01982" lon="4.52034">
        <ele>471</ele>
        <time>2021-03-05T21:18:34Z</time>
      </trkpt>
      <trkpt lat="46.01986" lon="4.52025">
        <ele>471</ele>
        <time>2021-03-05T21:18:44Z</time>
      </trkpt>
      <trkpt lat="46.01998" lon="4.52022">
        <ele>469</ele>
        <time>2021-03-05T21:19:00Z</time>
      </trkpt>
      <trkpt lat="46.02008" lon="4.52024">
        <ele>467</ele>
        <time>2021-03-05T21:19:13Z</time>
      </trkpt>
      <trkpt lat="46.02016" lon="4.52021">
        <ele>467</ele>
        <time>2021-03-05T21:19:24Z</time>
      </trkpt>
      <trkpt lat="46.02025" lon="4.52011">
        <ele>466</ele>
        <time>2021-03-05T21:19:39Z</time>
      </trkpt>
      <trkpt lat="46.02049" lon="4.51963">
        <ele>473</ele>
        <time>2021-03-05T21:20:34Z</time>
      </trkpt>
      <trkpt lat="46.02054" lon="4.51938">
        <ele>478</ele>
        <time>2021-03-05T21:20:58Z</time>
      </trkpt>
      <trkpt lat="46.02059" lon="4.51928">
        <ele>479</ele>
        <time>2021-03-05T21:21:10Z</time>
      </trkpt>
      <trkpt lat="46.02079" lon="4.51904">
        <ele>480</ele>
        <time>2021-03-05T21:21:45Z</time>
      </trkpt>
      <trkpt lat="46.02127" lon="4.51853">
        <ele>483</ele>
        <time>2021-03-05T21:23:04Z</time>
      </trkpt>
      <trkpt lat="46.02148" lon="4.51824">
        <ele>484</ele>
        <time>2021-03-05T21:23:43Z</time>
      </trkpt>
      <trkpt lat="46.02157" lon="4.51802">
        <ele>485</ele>
        <time>2021-03-05T21:24:07Z</time>
      </trkpt>
      <trkpt lat="46.02162" lon="4.51781">
        <ele>486</ele>
        <time>2021-03-05T21:24:27Z</time>
      </trkpt>
      <trkpt lat="46.02164" lon="4.51764">
        <ele>487</ele>
        <time>2021-03-05T21:24:43Z</time>
      </trkpt>
      <trkpt lat="46.02164" lon="4.51749">
        <ele>488</ele>
        <time>2021-03-05T21:24:57Z</time>
      </trkpt>
      <trkpt lat="46.02161" lon="4.51732">
        <ele>487</ele>
        <time>2021-03-05T21:25:13Z</time>
      </trkpt>
      <trkpt lat="46.02132" lon="4.51658">
        <ele>489</ele>
        <time>2021-03-05T21:26:32Z</time>
      </trkpt>
      <trkpt lat="46.02079" lon="4.51465">
        <ele>493</ele>
        <time>2021-03-05T21:29:44Z</time>
      </trkpt>
      <trkpt lat="46.02076" lon="4.51436">
        <ele>493</ele>
        <time>2021-03-05T21:30:12Z</time>
      </trkpt>
      <trkpt lat="46.02079" lon="4.51415">
        <ele>493</ele>
        <time>2021-03-05T21:30:31Z</time>
      </trkpt>
      <trkpt lat="46.02082" lon="4.51407">
        <ele>493</ele>
        <time>2021-03-05T21:30:40Z</time>
      </trkpt>
      <trkpt lat="46.02092" lon="4.51394">
        <ele>492</ele>
        <time>2021-03-05T21:30:58Z</time>
      </trkpt>
      <trkpt lat="46.02092" lon="4.51389">
        <ele>492</ele>
        <time>2021-03-05T21:31:02Z</time>
      </trkpt>
      <trkpt lat="46.0208" lon="4.51397">
        <ele>494</ele>
        <time>2021-03-05T21:31:20Z</time>
      </trkpt>
      <trkpt lat="46.02077" lon="4.51393">
        <ele>494</ele>
        <time>2021-03-05T21:31:26Z</time>
      </trkpt>
      <trkpt lat="46.02072" lon="4.51392">
        <ele>494</ele>
        <time>2021-03-05T21:31:32Z</time>
      </trkpt>
      <trkpt lat="46.02052" lon="4.51398">
        <ele>495</ele>
        <time>2021-03-05T21:32:00Z</time>
      </trkpt>
      <trkpt lat="46.02052" lon="4.51408">
        <ele>495</ele>
        <time>2021-03-05T21:32:09Z</time>
      </trkpt>
      <trkpt lat="46.02048" lon="4.5142">
        <ele>496</ele>
        <time>2021-03-05T21:32:21Z</time>
      </trkpt>
      <trkpt lat="46.02043" lon="4.51428">
        <ele>497</ele>
        <time>2021-03-05T21:32:31Z</time>
      </trkpt>
      <trkpt lat="46.0203" lon="4.51439">
        <ele>499</ele>
        <time>2021-03-05T21:32:51Z</time>
      </trkpt>
      <trkpt lat="46.0201" lon="4.51449">
        <ele>502</ele>
        <time>2021-03-05T21:33:19Z</time>
      </trkpt>
      <trkpt lat="46.0201" lon="4.51454">
        <ele>503</ele>
        <time>2021-03-05T21:33:24Z</time>
      </trkpt>
      <trkpt lat="46.02016" lon="4.5147">
        <ele>503</ele>
        <time>2021-03-05T21:33:41Z</time>
      </trkpt>
      <trkpt lat="46.01995" lon="4.51488">
        <ele>508</ele>
        <time>2021-03-05T21:34:14Z</time>
      </trkpt>
      <trkpt lat="46.01972" lon="4.51504">
        <ele>512</ele>
        <time>2021-03-05T21:34:48Z</time>
      </trkpt>
      <trkpt lat="46.01948" lon="4.51507">
        <ele>515</ele>
        <time>2021-03-05T21:35:20Z</time>
      </trkpt>
      <trkpt lat="46.0193" lon="4.51505">
        <ele>516</ele>
        <time>2021-03-05T21:35:44Z</time>
      </trkpt>
      <trkpt lat="46.01879" lon="4.51438">
        <ele>518</ele>
        <time>2021-03-05T21:37:16Z</time>
      </trkpt>
      <trkpt lat="46.01866" lon="4.51432">
        <ele>519</ele>
        <time>2021-03-05T21:37:34Z</time>
      </trkpt>
      <trkpt lat="46.01864" lon="4.51444">
        <ele>521</ele>
        <time>2021-03-05T21:37:46Z</time>
      </trkpt>
      <trkpt lat="46.01865" lon="4.51533">
        <ele>531</ele>
        <time>2021-03-05T21:39:08Z</time>
      </trkpt>
      <trkpt lat="46.01855" lon="4.51577">
        <ele>538</ele>
        <time>2021-03-05T21:39:51Z</time>
      </trkpt>
      <trkpt lat="46.0185" lon="4.5161">
        <ele>542</ele>
        <time>2021-03-05T21:40:22Z</time>
      </trkpt>
      <trkpt lat="46.01851" lon="4.51627">
        <ele>544</ele>
        <time>2021-03-05T21:40:38Z</time>
      </trkpt>
      <trkpt lat="46.01858" lon="4.51664">
        <ele>547</ele>
        <time>2021-03-05T21:41:14Z</time>
      </trkpt>
      <trkpt lat="46.01857" lon="4.51692">
        <ele>547</ele>
        <time>2021-03-05T21:41:40Z</time>
      </trkpt>
      <trkpt lat="46.0185" lon="4.51692">
        <ele>548</ele>
        <time>2021-03-05T21:41:49Z</time>
      </trkpt>
      <trkpt lat="46.01844" lon="4.517">
        <ele>549</ele>
        <time>2021-03-05T21:42:00Z</time>
      </trkpt>
      <trkpt lat="46.01844" lon="4.51708">
        <ele>549</ele>
        <time>2021-03-05T21:42:07Z</time>
      </trkpt>
      <trkpt lat="46.01842" lon="4.51712">
        <ele>549</ele>
        <time>2021-03-05T21:42:12Z</time>
      </trkpt>
      <trkpt lat="46.01836" lon="4.51716">
        <ele>550</ele>
        <time>2021-03-05T21:42:21Z</time>
      </trkpt>
      <trkpt lat="46.01831" lon="4.51714">
        <ele>551</ele>
        <time>2021-03-05T21:42:28Z</time>
      </trkpt>
      <trkpt lat="46.01818" lon="4.51704">
        <ele>554</ele>
        <time>2021-03-05T21:42:47Z</time>
      </trkpt>
      <trkpt lat="46.01776" lon="4.51681">
        <ele>565</ele>
        <time>2021-03-05T21:43:47Z</time>
      </trkpt>
      <trkpt lat="46.01757" lon="4.51677">
        <ele>569</ele>
        <time>2021-03-05T21:44:13Z</time>
      </trkpt>
      <trkpt lat="46.01738" lon="4.51677">
        <ele>572</ele>
        <time>2021-03-05T21:44:38Z</time>
      </trkpt>
      <trkpt lat="46.01701" lon="4.5166">
        <ele>576</ele>
        <time>2021-03-05T21:45:30Z</time>
      </trkpt>
      <trkpt lat="46.01689" lon="4.51668">
        <ele>578</ele>
        <time>2021-03-05T21:45:48Z</time>
      </trkpt>
      <trkpt lat="46.01677" lon="4.51653">
        <ele>578</ele>
        <time>2021-03-05T21:46:09Z</time>
      </trkpt>
      <trkpt lat="46.01667" lon="4.51646">
        <ele>579</ele>
        <time>2021-03-05T21:46:24Z</time>
      </trkpt>
      <trkpt lat="46.01669" lon="4.51638">
        <ele>579</ele>
        <time>2021-03-05T21:46:32Z</time>
      </trkpt>
      <trkpt lat="46.01666" lon="4.51628">
        <ele>579</ele>
        <time>2021-03-05T21:46:42Z</time>
      </trkpt>
      <trkpt lat="46.01665" lon="4.5161">
        <ele>578</ele>
        <time>2021-03-05T21:46:59Z</time>
      </trkpt>
      <trkpt lat="46.01666" lon="4.51589">
        <ele>578</ele>
        <time>2021-03-05T21:47:18Z</time>
      </trkpt>
      <trkpt lat="46.01668" lon="4.51574">
        <ele>577</ele>
        <time>2021-03-05T21:47:32Z</time>
      </trkpt>
      <trkpt lat="46.01665" lon="4.51374">
        <ele>548</ele>
        <time>2021-03-05T21:50:38Z</time>
      </trkpt>
      <trkpt lat="46.0166" lon="4.51336">
        <ele>544</ele>
        <time>2021-03-05T21:51:13Z</time>
      </trkpt>
      <trkpt lat="46.01661" lon="4.51326">
        <ele>543</ele>
        <time>2021-03-05T21:51:23Z</time>
      </trkpt>
      <trkpt lat="46.01661" lon="4.51244">
        <ele>537</ele>
        <time>2021-03-05T21:52:39Z</time>
      </trkpt>
      <trkpt lat="46.01662" lon="4.51238">
        <ele>537</ele>
        <time>2021-03-05T21:52:44Z</time>
      </trkpt>
      <trkpt lat="46.01667" lon="4.51233">
        <ele>538</ele>
        <time>2021-03-05T21:52:53Z</time>
      </trkpt>
      <trkpt lat="46.01666" lon="4.51223">
        <ele>538</ele>
        <time>2021-03-05T21:53:02Z</time>
      </trkpt>
      <trkpt lat="46.01668" lon="4.51175">
        <ele>539</ele>
        <time>2021-03-05T21:53:47Z</time>
      </trkpt>
      <trkpt lat="46.01669" lon="4.51174">
        <ele>539</ele>
        <time>2021-03-05T21:53:48Z</time>
      </trkpt>
    </trkseg>
  </trk>
</gpx>